Terminal Aerodrome Forecast
Issued by NWS Duluth, MN

Home | Current Version | Previous Version | Text Only | Print | Product List | Glossary On
Versions: 1 2 3 4 5 6 7 8 9 10 11 12 13 14 15 16 17 18 19 20 21 22 23 24 25 26 27 28 29 30 31 32 33 34 35
000
FTUS43 KDLH 242339
TAFDLH
TAF
KDLH 242339Z 2500/2524 11009KT P6SM BKN012 OVC023
     FM250500 14011KT 4SM -SHRA BR BKN005 OVC021 WS020/19030KT
      TEMPO 2505/2508 1SM -TSRA SCT005 OVC024CB
     FM251200 16012KT 5SM BR VCSH OVC008
     FM251600 19012G19KT P6SM BKN012
     FM252100 23014G21KT P6SM SCT040=

USA.gov is the U.S. government's official web portal to all federal, state and local government web resources and services.